Time;durP1;ratioP1;P1;durP2;ratioP2;P2;SDS_P1;SDS_P2;PMS_P1;PMS_P2;Temp;Humidity;BMP_temperature;BMP_pressure;BME280_temperature;BME280_humidity;BME280_pressure;Samples;Min_cycle;Max_cycle;Signal;HPM_P1;HPM_P2
2023/02/22 00:00:45;;;;;;;0.70;0.70;;;;;;;-1.05;65.10;100719.63;5064323;28;20025;-60
2023/02/22 00:03:23;;;;;;;0.60;0.60;;;;;;;-0.83;64.75;100718.88;5064357;28;20108;-60
2023/02/22 00:05:53;;;;;;;0.60;0.60;;;;;;;-0.94;64.89;100720.97;5064619;28;20053;-60
2023/02/22 00:08:21;;;;;;;0.70;0.70;;;;;;;-0.85;64.38;100722.19;5064203;28;20025;-60
2023/02/22 00:10:50;;;;;;;0.60;0.60;;;;;;;-0.92;64.61;100729.56;5064484;28;20156;-61
2023/02/22 00:13:17;;;;;;;0.60;0.60;;;;;;;-0.94;64.76;100726.06;5064333;28;20029;-61
2023/02/22 00:15:43;;;;;;;0.60;0.60;;;;;;;-1.03;64.91;100725.66;5064247;28;20374;-61
2023/02/22 00:18:12;;;;;;;0.60;0.60;;;;;;;-0.91;64.72;100722.78;5064419;28;20040;-61
2023/02/22 00:20:38;;;;;;;0.70;0.70;;;;;;;-0.80;64.30;100731.75;5063567;28;20032;-61
2023/02/22 00:23:08;;;;;;;0.70;0.70;;;;;;;-0.77;64.04;100731.03;5065198;28;20031;-61
2023/02/22 00:25:35;;;;;;;0.55;0.55;;;;;;;-0.90;64.39;100729.63;5064632;28;20040;-61
2023/02/22 00:28:02;;;;;;;0.60;0.60;;;;;;;-0.91;64.25;100733.00;5063196;28;20052;-60
2023/02/22 00:30:30;;;;;;;0.60;0.60;;;;;;;-1.02;64.73;100728.28;5064522;28;20020;-61
2023/02/22 00:32:56;;;;;;;0.60;0.60;;;;;;;-0.88;64.24;100723.78;5064346;28;20021;-60
2023/02/22 00:35:25;;;;;;;0.70;0.70;;;;;;;-0.88;64.08;100726.31;5064366;28;20099;-61
2023/02/22 00:37:53;;;;;;;0.60;0.60;;;;;;;-0.98;64.41;100725.88;5064205;28;20025;-61
2023/02/22 00:40:21;;;;;;;0.60;0.60;;;;;;;-1.03;64.44;100726.53;5062804;28;20442;-61
2023/02/22 00:42:46;;;;;;;0.55;0.55;;;;;;;-0.96;64.23;100722.59;5064960;28;20029;-61
2023/02/22 00:45:15;;;;;;;0.70;0.70;;;;;;;-0.80;64.01;100723.25;5068127;28;20032;-61
2023/02/22 00:47:41;;;;;;;0.60;0.60;;;;;;;-0.97;64.30;100722.50;5066506;28;20029;-61
2023/02/22 00:50:06;;;;;;;0.70;0.70;;;;;;;-1.01;64.44;100714.72;5067825;28;20029;-61
2023/02/22 00:52:32;;;;;;;0.68;0.68;;;;;;;-1.04;64.32;100706.94;5066429;28;20521;-61
2023/02/22 00:54:58;;;;;;;0.60;0.60;;;;;;;-1.00;64.25;100707.94;5067834;28;20024;-61
2023/02/22 00:57:24;;;;;;;0.57;0.57;;;;;;;-1.06;64.44;100708.56;5066261;28;20053;-61
2023/02/22 00:59:50;;;;;;;0.60;0.60;;;;;;;-1.10;64.68;100710.91;5067644;28;20051;-61
2023/02/22 01:02:16;;;;;;;0.60;0.60;;;;;;;-1.01;64.38;100709.63;5067683;28;20035;-61
2023/02/22 01:04:41;;;;;;;0.60;0.60;;;;;;;-1.02;64.23;100705.34;5067754;28;20078;-61
2023/02/22 01:07:07;;;;;;;0.60;0.60;;;;;;;-0.95;63.91;100709.03;5067654;28;20405;-60
2023/02/22 01:09:33;;;;;;;0.60;0.60;;;;;;;-1.01;64.34;100712.16;5067229;28;20089;-59
2023/02/22 01:11:59;;;;;;;0.60;0.60;;;;;;;-0.94;64.17;100707.38;5067511;28;20025;-61
2023/02/22 01:14:26;;;;;;;0.60;0.60;;;;;;;-0.92;63.82;100708.28;5067491;28;20028;-60
2023/02/22 01:16:55;;;;;;;0.70;0.70;;;;;;;-1.01;64.16;100709.63;5067393;28;20497;-60
2023/02/22 01:19:21;;;;;;;0.60;0.60;;;;;;;-0.88;63.69;100712.72;5067422;28;20054;-60
2023/02/22 01:21:48;;;;;;;0.95;0.95;;;;;;;-1.07;64.22;100714.44;5067105;28;20033;-60
2023/02/22 01:24:15;;;;;;;0.40;0.40;;;;;;;-1.08;64.23;100706.75;5067263;28;20025;-60
2023/02/22 01:26:49;;;;;;;0.70;0.70;;;;;;;-0.98;64.15;100710.56;5067404;28;20029;-60
2023/02/22 01:29:16;;;;;;;0.70;0.70;;;;;;;-1.10;64.44;100711.78;5067283;28;20033;-60
2023/02/22 01:31:43;;;;;;;0.60;0.60;;;;;;;-1.00;64.42;100703.75;5067408;28;20041;-59
2023/02/22 01:34:11;;;;;;;0.63;0.63;;;;;;;-0.94;63.87;100712.47;5066986;28;20090;-59
2023/02/22 01:36:38;;;;;;;0.60;0.60;;;;;;;-1.02;64.12;100707.88;5067181;28;20025;-61
2023/02/22 01:39:04;;;;;;;0.70;0.70;;;;;;;-0.97;63.99;100717.41;5065761;28;20021;-61
2023/02/22 01:41:30;;;;;;;0.70;0.70;;;;;;;-1.04;64.27;100712.03;5066994;28;20089;-60
2023/02/22 01:43:56;;;;;;;0.63;0.63;;;;;;;-1.09;64.29;100715.19;5066804;28;20033;-60
2023/02/22 01:46:24;;;;;;;0.70;0.70;;;;;;;-1.16;64.52;100722.56;5067050;28;20025;-61
2023/02/22 01:49:02;;;;;;;0.60;0.60;;;;;;;-1.04;64.08;100717.13;5066704;28;20055;-60
2023/02/22 01:51:42;;;;;;;0.70;0.70;;;;;;;-0.83;63.70;100716.31;5066805;28;20080;-60
2023/02/22 01:54:15;;;;;;;0.60;0.60;;;;;;;-0.98;64.17;100716.56;5065672;28;20029;-60
2023/02/22 01:56:49;;;;;;;0.70;0.70;;;;;;;-0.97;64.00;100714.84;5066644;28;20021;-60
2023/02/22 01:59:16;;;;;;;0.60;0.60;;;;;;;-1.20;64.63;100719.81;5066691;28;20028;-60
2023/02/22 02:01:43;;;;;;;0.60;0.60;;;;;;;-1.12;64.51;100724.44;5066488;28;20025;-60
2023/02/22 02:04:14;;;;;;;0.70;0.70;;;;;;;-0.97;63.98;100715.72;5066508;28;20032;-61
2023/02/22 02:06:41;;;;;;;0.80;0.80;;;;;;;-1.07;64.44;100714.44;5065104;28;20108;-59
2023/02/22 02:09:12;;;;;;;0.60;0.60;;;;;;;-1.18;64.90;100718.22;5066416;28;20053;-59
2023/02/22 02:11:39;;;;;;;0.80;0.80;;;;;;;-1.08;64.23;100715.25;5066478;28;20021;-62
2023/02/22 02:14:07;;;;;;;1.50;1.42;;;;;;;-1.13;64.71;100711.63;5066095;28;20060;-62
2023/02/22 02:16:39;;;;;;;0.70;0.70;;;;;;;-1.16;64.68;100726.78;5066316;28;20017;-62
2023/02/22 02:19:16;;;;;;;0.60;0.60;;;;;;;-1.30;65.25;100731.28;5066054;28;20040;-60
2023/02/22 02:22:06;;;;;;;0.65;0.65;;;;;;;-1.27;65.15;100729.75;5066181;28;20085;-59
2023/02/22 02:24:43;;;;;;;0.70;0.70;;;;;;;-1.35;65.44;100731.06;5065947;28;20103;-60
2023/02/22 02:27:21;;;;;;;0.60;0.60;;;;;;;-1.41;65.33;100725.69;5065873;28;20027;-60
2023/02/22 02:30:22;;;;;;;0.60;0.60;;;;;;;-1.23;65.04;100728.19;5066121;28;20025;-61
2023/02/22 02:32:47;;;;;;;0.80;0.80;;;;;;;-1.36;65.30;100724.22;5066227;28;20035;-61
2023/02/22 02:35:29;;;;;;;0.63;0.63;;;;;;;-1.29;65.19;100730.44;5065900;28;20465;-60
2023/02/22 02:38:16;;;;;;;0.60;0.60;;;;;;;-1.30;65.05;100733.81;5065832;28;20021;-59
2023/02/22 02:40:48;;;;;;;0.60;0.60;;;;;;;-1.43;65.46;100730.72;5065719;28;20089;-60
2023/02/22 02:43:32;;;;;;;0.70;0.70;;;;;;;-1.44;65.54;100735.75;5065830;28;20039;-59
2023/02/22 02:46:05;;;;;;;0.60;0.60;;;;;;;-1.48;65.65;100733.84;5065816;28;20035;-61
2023/02/22 02:48:33;;;;;;;0.70;0.70;;;;;;;-1.51;65.79;100724.38;5066829;28;20025;-60
2023/02/22 02:51:02;;;;;;;0.63;0.63;;;;;;;-1.48;66.24;100719.44;5067266;28;20032;-60
2023/02/22 02:53:41;;;;;;;0.70;0.70;;;;;;;-1.56;66.11;100708.91;5065418;28;20029;-60
2023/02/22 02:56:07;;;;;;;0.60;0.60;;;;;;;-1.48;65.84;100713.47;5065483;28;20025;-59
2023/02/22 02:58:32;;;;;;;0.60;0.60;;;;;;;-1.57;66.03;100704.63;5065246;28;20048;-60
2023/02/22 03:01:03;;;;;;;0.70;0.70;;;;;;;-1.61;66.17;100718.00;5065571;28;20062;-60
2023/02/22 03:04:01;;;;;;;0.68;0.68;;;;;;;-1.45;65.83;100719.56;5065251;28;20067;-60
2023/02/22 03:06:59;;;;;;;0.70;0.70;;;;;;;-1.25;65.17;100711.97;5065318;28;20076;-60
2023/02/22 03:09:37;;;;;;;0.60;0.60;;;;;;;-1.32;65.60;100722.66;5052805;28;20041;-61
2023/02/22 03:12:31;;;;;;;0.60;0.60;;;;;;;-1.30;65.55;100713.44;5063901;28;20028;-60
2023/02/22 03:15:31;;;;;;;1.23;1.23;;;;;;;-1.37;65.65;100717.38;5065376;28;20091;-60
2023/02/22 03:18:06;;;;;;;2.15;2.05;;;;;;;-1.35;65.72;100720.00;5065018;28;20041;-60
2023/02/22 03:20:42;;;;;;;0.73;0.73;;;;;;;-1.19;65.10;100726.66;5065197;28;20047;-60
2023/02/22 03:23:12;;;;;;;0.70;0.70;;;;;;;-1.42;65.68;100698.50;5064940;28;20392;-60
2023/02/22 03:25:45;;;;;;;0.70;0.70;;;;;;;-1.46;66.01;100720.38;5065272;28;20054;-60
2023/02/22 03:28:16;;;;;;;0.70;0.70;;;;;;;-1.32;65.89;100715.91;5064910;28;20067;-60
2023/02/22 03:30:50;;;;;;;0.67;0.67;;;;;;;-1.59;66.34;100711.31;5065233;28;20103;-60
2023/02/22 03:33:32;;;;;;;0.50;0.50;;;;;;;-1.56;66.37;100726.72;5064699;28;20043;-61
2023/02/22 03:36:02;;;;;;;0.70;0.70;;;;;;;-1.60;66.37;100712.13;5065141;28;20025;-60
2023/02/22 03:38:31;;;;;;;0.60;0.60;;;;;;;-1.38;65.99;100720.72;5064979;28;20175;-60
2023/02/22 03:41:01;;;;;;;0.60;0.60;;;;;;;-1.38;65.77;100705.44;5064849;28;20029;-60
2023/02/22 03:43:35;;;;;;;0.60;0.60;;;;;;;-1.51;66.20;100699.81;5064907;28;20025;-61
2023/02/22 03:46:04;;;;;;;0.70;0.70;;;;;;;-1.60;66.43;100709.56;5063605;28;20025;-60
2023/02/22 03:48:59;;;;;;;0.60;0.60;;;;;;;-1.53;66.56;100701.41;5064879;28;20029;-61
2023/02/22 03:51:25;;;;;;;0.60;0.60;;;;;;;-1.54;66.40;100701.34;5065165;28;20025;-60
2023/02/22 03:53:51;;;;;;;0.70;0.70;;;;;;;-1.60;66.54;100694.28;5063227;28;20033;-60
2023/02/22 03:56:34;;;;;;;0.60;0.60;;;;;;;-1.47;66.50;100705.03;5064683;28;20025;-60
2023/02/22 03:59:05;;;;;;;0.60;0.60;;;;;;;-1.70;67.09;100697.19;5064749;28;20064;-60
2023/02/22 04:01:30;;;;;;;0.60;0.60;;;;;;;-1.61;67.18;100700.16;5064524;28;20021;-62
2023/02/22 04:03:56;;;;;;;0.60;0.60;;;;;;;-1.70;67.32;100699.75;5064522;28;20031;-60
2023/02/22 04:06:21;;;;;;;0.70;0.70;;;;;;;-1.57;66.80;100709.72;5064493;28;20057;-60
2023/02/22 04:08:47;;;;;;;0.70;0.70;;;;;;;-1.55;66.97;100699.59;5064333;28;20029;-61
2023/02/22 04:11:12;;;;;;;0.90;0.90;;;;;;;-1.42;66.72;100706.97;5064693;28;20043;-63
2023/02/22 04:13:38;;;;;;;0.60;0.60;;;;;;;-1.61;67.22;100715.44;5064509;28;20366;-62
2023/02/22 04:16:03;;;;;;;0.60;0.60;;;;;;;-1.52;66.92;100720.97;5064634;28;20075;-60
2023/02/22 04:18:29;;;;;;;0.60;0.60;;;;;;;-1.42;66.90;100723.97;5066709;28;20049;-60
2023/02/22 04:20:54;;;;;;;0.70;0.70;;;;;;;-1.40;66.82;100718.13;5068433;28;20025;-60
2023/02/22 04:23:20;;;;;;;0.60;0.60;;;;;;;-1.41;66.58;100716.38;5067978;28;20021;-61
2023/02/22 04:25:45;;;;;;;0.68;0.68;;;;;;;-1.48;66.98;100716.88;5068439;28;20025;-62
2023/02/22 04:28:11;;;;;;;0.60;0.60;;;;;;;-1.32;66.35;100722.66;5068199;28;20107;-60
2023/02/22 04:30:36;;;;;;;0.60;0.60;;;;;;;-1.42;66.79;100724.81;5068563;28;20017;-59
2023/02/22 04:33:02;;;;;;;0.70;0.70;;;;;;;-1.45;66.99;100724.66;5068134;28;20275;-60
2023/02/22 04:35:27;;;;;;;0.70;0.70;;;;;;;-1.45;67.07;100718.72;5068218;28;20029;-59
2023/02/22 04:37:52;;;;;;;0.60;0.60;;;;;;;-1.47;67.07;100720.31;5068307;28;20103;-60
2023/02/22 04:40:18;;;;;;;0.70;0.70;;;;;;;-1.46;67.08;100727.16;5067794;28;20033;-60
2023/02/22 04:42:43;;;;;;;0.63;0.63;;;;;;;-1.40;67.26;100717.22;5068077;28;20040;-62
2023/02/22 04:45:10;;;;;;;0.60;0.60;;;;;;;-1.23;66.59;100712.91;5068049;28;20028;-60
2023/02/22 04:47:36;;;;;;;0.60;0.60;;;;;;;-1.38;66.79;100721.63;5068126;28;20029;-60
2023/02/22 04:50:05;;;;;;;0.70;0.70;;;;;;;-1.30;66.33;100726.16;5067834;28;20043;-60
2023/02/22 04:52:30;;;;;;;0.70;0.70;;;;;;;-1.26;66.33;100726.38;5067824;28;20017;-62
2023/02/22 04:54:55;;;;;;;0.70;0.70;;;;;;;-1.34;66.31;100717.50;5067665;28;20025;-60
2023/02/22 04:57:21;;;;;;;0.70;0.70;;;;;;;-1.23;66.57;100734.97;5067533;28;20049;-62
2023/02/22 04:59:47;;;;;;;0.70;0.70;;;;;;;-1.42;66.95;100724.81;5067699;28;20104;-60
2023/02/22 05:02:12;;;;;;;0.70;0.70;;;;;;;-1.28;66.52;100720.34;5067807;28;20021;-60
2023/02/22 05:04:38;;;;;;;0.60;0.60;;;;;;;-1.34;66.52;100712.41;5067568;28;20025;-61
2023/02/22 05:07:04;;;;;;;0.55;0.55;;;;;;;-1.45;67.06;100719.56;5068007;28;20129;-61
2023/02/22 05:09:29;;;;;;;0.70;0.70;;;;;;;-1.28;66.86;100715.25;5067788;28;20084;-61
2023/02/22 05:11:54;;;;;;;0.70;0.70;;;;;;;-1.03;65.71;100718.91;5067746;28;20101;-61
2023/02/22 05:14:20;;;;;;;0.60;0.60;;;;;;;-1.15;65.87;100719.22;5067509;28;20028;-60
2023/02/22 05:16:48;;;;;;;0.70;0.70;;;;;;;-1.35;66.62;100715.78;5068521;28;20029;-60
2023/02/22 05:19:14;;;;;;;0.70;0.70;;;;;;;-1.27;66.60;100716.13;5067540;28;20110;-60
2023/02/22 05:21:39;;;;;;;0.60;0.60;;;;;;;-1.28;66.57;100702.50;5067468;28;20025;-60
2023/02/22 05:24:06;;;;;;;0.70;0.70;;;;;;;-1.32;66.81;100713.38;5066618;28;20017;-60
2023/02/22 05:26:31;;;;;;;0.60;0.60;;;;;;;-1.22;66.39;100708.69;5066963;28;20078;-60
2023/02/22 05:28:56;;;;;;;0.60;0.60;;;;;;;-1.16;66.75;100703.84;5066665;28;20028;-59
2023/02/22 05:31:22;;;;;;;0.70;0.70;;;;;;;-1.18;66.28;100713.97;5067096;28;20021;-60
2023/02/22 05:33:47;;;;;;;0.63;0.63;;;;;;;-1.17;66.58;100719.97;5066906;28;20108;-62
2023/02/22 05:36:12;;;;;;;0.57;0.57;;;;;;;-0.91;65.69;100697.31;5066953;28;20408;-61
2023/02/22 05:38:42;;;;;;;0.60;0.60;;;;;;;-1.17;66.40;100702.13;5066548;28;20026;-61
2023/02/22 05:41:08;;;;;;;0.63;0.63;;;;;;;-1.14;66.45;100702.25;5066959;28;20025;-61
2023/02/22 05:43:34;;;;;;;0.60;0.60;;;;;;;-1.15;66.48;100700.53;5066752;28;20044;-60
2023/02/22 05:45:59;;;;;;;0.60;0.60;;;;;;;-1.09;66.83;100698.25;5066677;28;20025;-61
2023/02/22 05:48:24;;;;;;;0.60;0.60;;;;;;;-1.19;66.75;100717.34;5066632;28;20075;-62
2023/02/22 05:50:50;;;;;;;0.70;0.70;;;;;;;-1.27;67.22;100709.34;5066555;28;20124;-63
2023/02/22 05:53:15;;;;;;;0.70;0.70;;;;;;;-1.21;67.20;100712.97;5066711;28;20020;-60
2023/02/22 05:55:41;;;;;;;0.68;0.68;;;;;;;-1.30;67.36;100727.06;5066822;28;20477;-61
2023/02/22 05:58:06;;;;;;;0.60;0.60;;;;;;;-1.25;67.71;100732.34;5066587;28;20045;-61
2023/02/22 06:00:31;;;;;;;0.60;0.60;;;;;;;-1.20;67.42;100714.72;5066579;28;20029;-61
2023/02/22 06:03:05;;;;;;;0.60;0.60;;;;;;;-1.23;67.57;100720.53;5066749;28;20029;-60
2023/02/22 06:05:30;;;;;;;0.60;0.60;;;;;;;-1.22;67.50;100729.06;5065305;28;20028;-61
2023/02/22 06:07:57;;;;;;;0.60;0.60;;;;;;;-1.45;68.24;100728.91;5066541;28;20029;-60
2023/02/22 06:10:23;;;;;;;0.60;0.60;;;;;;;-1.47;68.74;100740.69;5066246;28;20082;-60
2023/02/22 06:12:49;;;;;;;0.70;0.70;;;;;;;-1.57;69.03;100735.19;5066278;28;20029;-60
2023/02/22 06:15:17;;;;;;;0.60;0.60;;;;;;;-1.44;68.51;100734.06;5066426;28;20098;-60
2023/02/22 06:17:43;;;;;;;0.70;0.70;;;;;;;-1.32;68.44;100735.41;5065050;28;20025;-60
2023/02/22 06:20:09;;;;;;;0.52;0.52;;;;;;;-1.42;68.75;100742.63;5066239;28;20128;-60
2023/02/22 06:22:35;;;;;;;0.60;0.60;;;;;;;-1.36;68.76;100742.06;5065655;28;20521;-60
2023/02/22 06:25:05;;;;;;;0.68;0.68;;;;;;;-1.40;69.04;100742.72;5065910;28;20058;-60
2023/02/22 06:27:31;;;;;;;0.70;0.70;;;;;;;-1.43;68.91;100750.22;5066001;28;20124;-60
2023/02/22 06:29:59;;;;;;;0.60;0.60;;;;;;;-1.56;69.31;100749.66;5066148;28;20047;-61
2023/02/22 06:32:24;;;;;;;0.60;0.60;;;;;;;-1.55;69.72;100760.72;5066034;28;20109;-60
2023/02/22 06:34:49;;;;;;;0.70;0.70;;;;;;;-1.31;69.08;100750.75;5065882;28;20028;-60
2023/02/22 06:37:15;;;;;;;0.60;0.60;;;;;;;-1.46;69.62;100755.16;5066095;28;20025;-60
2023/02/22 06:39:40;;;;;;;0.70;0.70;;;;;;;-1.32;69.42;100755.78;5065817;28;20029;-60
2023/02/22 06:42:06;;;;;;;0.60;0.60;;;;;;;-1.41;69.77;100756.25;5063999;28;20025;-60
2023/02/22 06:44:31;;;;;;;0.60;0.60;;;;;;;-1.38;69.89;100761.50;5065616;28;20029;-61
2023/02/22 06:46:58;;;;;;;0.70;0.70;;;;;;;-1.39;70.01;100760.59;5065843;28;20025;-60
2023/02/22 06:49:25;;;;;;;0.60;0.60;;;;;;;-1.26;69.66;100756.06;5065604;28;20377;-60
2023/02/22 06:51:51;;;;;;;0.50;0.50;;;;;;;-1.36;69.86;100770.09;5065698;28;20017;-60
2023/02/22 06:54:16;;;;;;;0.65;0.65;;;;;;;-1.29;69.93;100771.22;5065573;28;20025;-61
2023/02/22 06:56:42;;;;;;;0.60;0.60;;;;;;;-1.23;69.79;100770.66;5065560;28;20048;-61
2023/02/22 06:59:07;;;;;;;0.70;0.70;;;;;;;-1.19;69.78;100772.50;5065943;28;20025;-62
2023/02/22 07:01:33;;;;;;;0.60;0.60;;;;;;;-1.25;69.86;100762.94;5065490;28;20078;-61
2023/02/22 07:03:58;;;;;;;0.60;0.60;;;;;;;-1.15;69.62;100770.16;5065346;28;20039;-61
2023/02/22 07:06:24;;;;;;;0.60;0.60;;;;;;;-1.07;69.56;100770.53;5065544;28;20063;-61
2023/02/22 07:08:49;;;;;;;0.60;0.60;;;;;;;-1.09;69.49;100774.69;5064850;28;20043;-61
2023/02/22 07:11:16;;;;;;;0.70;0.70;;;;;;;-0.98;69.61;100756.44;5065563;28;20025;-61
2023/02/22 07:13:41;;;;;;;0.82;0.82;;;;;;;-0.89;68.96;100764.50;5065433;28;20105;-61
2023/02/22 07:16:07;;;;;;;0.70;0.70;;;;;;;-0.97;69.51;100760.72;5065408;28;20025;-61
2023/02/22 07:18:32;;;;;;;0.60;0.60;;;;;;;-0.83;69.18;100759.66;5065218;28;20017;-61
2023/02/22 07:20:58;;;;;;;0.65;0.65;;;;;;;-0.71;68.68;100763.56;5064018;28;20051;-61
2023/02/22 07:23:23;;;;;;;0.60;0.60;;;;;;;-0.93;69.62;100766.06;5065215;28;20104;-64
2023/02/22 07:25:49;;;;;;;0.65;0.65;;;;;;;-0.97;69.84;100768.38;5065145;28;20028;-61
2023/02/22 07:28:15;;;;;;;0.70;0.70;;;;;;;-0.70;69.12;100761.09;5065547;28;20025;-61
2023/02/22 07:30:41;;;;;;;0.50;0.50;;;;;;;-0.56;68.92;100771.88;5065264;28;20025;-61
2023/02/22 07:33:09;;;;;;;0.57;0.57;;;;;;;-0.36;68.45;100770.97;5064978;28;20027;-61
2023/02/22 07:35:43;;;;;;;1.02;1.02;;;;;;;-0.24;67.93;100768.09;5064971;28;20385;-62
2023/02/22 07:38:09;;;;;;;0.65;0.65;;;;;;;-0.50;69.02;100761.09;5065240;28;20036;-62
2023/02/22 07:40:35;;;;;;;0.68;0.68;;;;;;;-0.55;68.97;100767.66;5063615;28;20025;-61
2023/02/22 07:43:03;;;;;;;0.60;0.60;;;;;;;-0.67;70.04;100770.56;5065379;28;20029;-65
2023/02/22 07:45:31;;;;;;;5.50;4.97;;;;;;;-0.18;68.51;100773.44;5065092;28;20100;-61
2023/02/22 07:47:59;;;;;;;0.60;0.60;;;;;;;-0.18;68.32;100768.34;5064825;28;20089;-60
2023/02/22 07:50:27;;;;;;;0.60;0.60;;;;;;;-0.09;67.84;100767.84;5064894;28;20037;-61
2023/02/22 07:52:55;;;;;;;0.60;0.60;;;;;;;-0.25;68.66;100777.41;5066097;28;20099;-61
2023/02/22 07:55:23;;;;;;;0.70;0.70;;;;;;;0.10;67.91;100774.56;5068889;28;20094;-61
2023/02/22 07:57:51;;;;;;;0.60;0.60;;;;;;;-0.03;67.82;100784.28;5068941;28;20132;-61
2023/02/22 08:00:26;;;;;;;0.60;0.60;;;;;;;0.02;68.41;100781.06;5069085;28;20021;-61
2023/02/22 08:02:52;;;;;;;0.63;0.63;;;;;;;0.09;67.99;100778.81;5069001;28;20108;-61
2023/02/22 08:05:19;;;;;;;0.60;0.60;;;;;;;0.10;68.07;100783.09;5068953;28;20025;-60
2023/02/22 08:07:45;;;;;;;0.70;0.70;;;;;;;0.06;68.15;100780.38;5067632;28;20052;-61
2023/02/22 08:10:13;;;;;;;0.60;0.60;;;;;;;-0.01;68.10;100780.13;5068719;28;20025;-61
2023/02/22 08:12:38;;;;;;;0.65;0.65;;;;;;;0.20;67.29;100776.69;5068953;28;20024;-61
2023/02/22 08:15:06;;;;;;;0.60;0.60;;;;;;;-0.04;68.52;100781.66;5068801;28;20025;-62
2023/02/22 08:17:31;;;;;;;0.63;0.63;;;;;;;-0.06;68.71;100773.06;5068734;28;20084;-61
2023/02/22 08:19:56;;;;;;;0.50;0.50;;;;;;;-0.09;69.04;100781.47;5068617;28;20063;-61
2023/02/22 08:22:22;;;;;;;0.60;0.60;;;;;;;0.27;67.89;100771.81;5068713;28;20033;-61
2023/02/22 08:24:48;;;;;;;0.60;0.60;;;;;;;0.28;68.10;100778.66;5068320;28;20025;-61
2023/02/22 08:27:14;;;;;;;0.70;0.70;;;;;;;0.26;68.30;100780.31;5068678;28;20049;-61
2023/02/22 08:29:39;;;;;;;0.60;0.60;;;;;;;0.32;68.18;100783.09;5068391;28;20040;-61
2023/02/22 08:32:05;;;;;;;0.52;0.52;;;;;;;0.30;68.32;100779.63;5068376;28;20027;-63
2023/02/22 08:34:30;;;;;;;0.60;0.60;;;;;;;0.37;68.35;100784.13;5068476;28;20058;-62
2023/02/22 08:36:57;;;;;;;0.52;0.52;;;;;;;0.22;68.93;100779.31;5068336;28;20025;-62
2023/02/22 08:39:22;;;;;;;0.70;0.70;;;;;;;0.30;68.62;100777.94;5068215;28;20025;-62
2023/02/22 08:41:48;;;;;;;0.60;0.60;;;;;;;0.64;67.56;100773.25;5068266;28;20051;-62
2023/02/22 08:44:13;;;;;;;0.60;0.60;;;;;;;0.73;67.12;100773.63;5068157;28;20085;-62
2023/02/22 08:46:39;;;;;;;0.65;0.65;;;;;;;0.79;67.85;100780.66;5068382;28;20526;-62
2023/02/22 08:49:07;;;;;;;0.60;0.60;;;;;;;0.65;68.13;100769.91;5067928;28;20499;-62
2023/02/22 08:51:35;;;;;;;0.68;0.68;;;;;;;0.92;67.39;100774.31;5068259;28;20020;-62
2023/02/22 08:54:02;;;;;;;0.63;0.63;;;;;;;0.84;67.73;100770.59;5067828;28;20071;-62
2023/02/22 08:56:28;;;;;;;0.60;0.60;;;;;;;0.89;67.93;100755.41;5068020;28;20021;-62
2023/02/22 08:58:56;;;;;;;0.50;0.50;;;;;;;1.25;66.96;100761.81;5067825;28;20345;-61
2023/02/22 09:01:23;;;;;;;0.60;0.60;;;;;;;1.35;66.95;100769.00;5068007;28;20025;-62
2023/02/22 09:03:49;;;;;;;0.60;0.60;;;;;;;1.42;66.71;100767.53;5067575;28;20060;-62
2023/02/22 09:06:15;;;;;;;0.60;0.60;;;;;;;1.32;66.69;100774.00;5068058;28;20040;-61
2023/02/22 09:08:41;;;;;;;0.63;0.63;;;;;;;1.18;67.16;100765.84;5067711;28;20021;-61
2023/02/22 09:11:06;;;;;;;0.60;0.60;;;;;;;1.44;66.33;100779.56;5067709;28;20017;-61
2023/02/22 09:13:31;;;;;;;0.60;0.60;;;;;;;1.44;66.26;100777.00;5067577;28;20021;-61
2023/02/22 09:15:57;;;;;;;0.57;0.57;;;;;;;1.48;65.99;100771.19;5067851;28;20020;-61
2023/02/22 09:18:22;;;;;;;0.60;0.60;;;;;;;1.33;66.62;100756.16;5067526;28;20024;-61
2023/02/22 09:20:47;;;;;;;0.52;0.52;;;;;;;1.18;67.28;100774.38;5067522;28;20124;-61
2023/02/22 09:23:13;;;;;;;0.52;0.52;;;;;;;1.47;66.61;100758.34;5067735;28;20493;-63
2023/02/22 09:25:39;;;;;;;0.60;0.60;;;;;;;1.46;66.46;100757.47;5065996;28;20485;-61
2023/02/22 09:28:05;;;;;;;0.60;0.60;;;;;;;1.25;67.01;100761.81;5066240;28;20028;-63
2023/02/22 09:30:35;;;;;;;0.60;0.60;;;;;;;1.29;67.77;100786.69;5067529;28;20036;-62
2023/02/22 09:33:16;;;;;;;0.60;0.60;;;;;;;1.65;66.26;100768.31;5067259;28;20025;-62
2023/02/22 09:35:46;;;;;;;0.70;0.70;;;;;;;1.39;66.77;100775.09;5067343;28;20045;-61
2023/02/22 09:38:17;;;;;;;0.60;0.60;;;;;;;1.77;65.88;100772.13;5067455;28;20028;-62
2023/02/22 09:40:48;;;;;;;0.60;0.60;;;;;;;1.45;67.01;100770.19;5067060;28;20017;-62
2023/02/22 09:43:29;;;;;;;0.80;0.80;;;;;;;1.55;66.56;100772.25;5067321;28;20076;-61
2023/02/22 09:46:04;;;;;;;0.60;0.60;;;;;;;1.51;67.26;100769.53;5067328;28;20033;-62
2023/02/22 09:48:35;;;;;;;0.60;0.60;;;;;;;1.72;66.15;100777.97;5067266;28;20033;-61
2023/02/22 09:51:05;;;;;;;0.70;0.70;;;;;;;1.86;65.88;100767.31;5066763;28;20480;-62
2023/02/22 09:53:40;;;;;;;0.50;0.50;;;;;;;1.78;66.05;100764.50;5066933;28;20029;-61
2023/02/22 09:56:09;;;;;;;0.60;0.60;;;;;;;1.72;66.11;100765.16;5066761;28;20025;-61
2023/02/22 09:58:55;;;;;;;0.65;0.65;;;;;;;1.66;66.62;100780.28;5066646;28;20044;-61
2023/02/22 10:01:21;;;;;;;0.60;0.60;;;;;;;1.75;66.03;100773.75;5066791;28;20043;-61
2023/02/22 10:04:02;;;;;;;0.60;0.60;;;;;;;1.64;66.72;100776.81;5066912;28;20029;-61
2023/02/22 10:06:29;;;;;;;0.68;0.68;;;;;;;1.76;66.78;100789.16;5066857;28;20028;-61
2023/02/22 10:08:58;;;;;;;0.60;0.60;;;;;;;1.76;66.54;100781.47;5066556;28;20029;-61
2023/02/22 10:11:36;;;;;;;0.57;0.57;;;;;;;1.82;66.18;100784.25;5066028;28;20032;-61
2023/02/22 10:14:04;;;;;;;0.60;0.60;;;;;;;1.95;65.83;100780.41;5066863;28;20021;-60
2023/02/22 10:16:32;;;;;;;0.60;0.60;;;;;;;1.77;66.66;100784.91;5065711;28;20036;-61
2023/02/22 10:19:14;;;;;;;0.60;0.60;;;;;;;1.82;66.66;100786.81;5066508;28;20047;-60
2023/02/22 10:21:45;;;;;;;0.70;0.70;;;;;;;2.00;66.09;100777.16;5066442;28;20025;-61
2023/02/22 10:24:48;;;;;;;0.60;0.60;;;;;;;1.91;66.04;100773.44;5065971;28;20021;-62
2023/02/22 10:27:18;;;;;;;0.60;0.60;;;;;;;1.86;66.33;100772.41;5066229;28;20021;-61
2023/02/22 10:30:04;;;;;;;0.60;0.60;;;;;;;2.13;66.30;100776.72;5066169;28;20036;-61
2023/02/22 10:32:45;;;;;;;0.60;0.60;;;;;;;2.06;65.84;100770.50;5065989;28;20029;-60
2023/02/22 10:35:22;;;;;;;0.60;0.60;;;;;;;2.14;65.79;100768.19;5064645;28;20024;-61
2023/02/22 10:37:52;;;;;;;0.60;0.60;;;;;;;2.34;65.41;100770.53;5066267;28;20032;-60
2023/02/22 10:40:30;;;;;;;0.60;0.60;;;;;;;2.14;66.10;100768.19;5065677;28;20406;-60
2023/02/22 10:43:07;;;;;;;0.57;0.57;;;;;;;2.03;67.02;100757.59;5066266;28;20106;-61
2023/02/22 10:45:35;;;;;;;0.60;0.60;;;;;;;2.14;66.98;100763.06;5065843;28;20036;-60
2023/02/22 10:48:07;;;;;;;0.60;0.60;;;;;;;2.55;65.72;100767.75;5065838;28;20021;-61
2023/02/22 10:50:35;;;;;;;0.60;0.60;;;;;;;2.60;65.60;100773.03;5065937;28;20032;-60
2023/02/22 10:53:01;;;;;;;0.60;0.60;;;;;;;2.65;65.25;100768.03;5064680;28;20025;-60
2023/02/22 10:55:26;;;;;;;0.60;0.60;;;;;;;2.82;64.65;100761.72;5065582;28;20021;-60
2023/02/22 10:58:03;;;;;;;0.60;0.60;;;;;;;2.48;65.45;100738.50;5065582;28;20547;-61
2023/02/22 11:00:36;;;;;;;0.60;0.60;;;;;;;2.59;65.18;100761.00;5065650;28;20032;-61
2023/02/22 11:03:16;;;;;;;0.50;0.50;;;;;;;2.66;65.72;100750.13;5065755;28;20032;-61
2023/02/22 11:05:42;;;;;;;0.55;0.55;;;;;;;2.56;65.93;100753.25;5065530;28;20064;-60
2023/02/22 11:08:20;;;;;;;0.50;0.50;;;;;;;2.84;65.49;100748.94;5065636;28;20436;-60
2023/02/22 11:11:06;;;;;;;1.45;1.38;;;;;;;2.81;64.96;100746.28;5065347;28;20366;-61
2023/02/22 11:13:39;;;;;;;0.50;0.50;;;;;;;3.10;64.36;100735.97;5065130;28;20047;-61
2023/02/22 11:16:20;;;;;;;0.57;0.57;;;;;;;3.19;63.79;100727.66;5065430;28;20021;-61
2023/02/22 11:18:48;;;;;;;0.50;0.50;;;;;;;3.21;63.13;100737.13;5065433;28;20077;-61
2023/02/22 11:21:21;;;;;;;0.50;0.50;;;;;;;3.27;63.34;100723.63;5065164;28;20097;-61
2023/02/22 11:23:49;;;;;;;0.50;0.50;;;;;;;3.08;64.02;100730.78;5065413;28;20112;-61
2023/02/22 11:26:19;;;;;;;0.50;0.50;;;;;;;2.90;64.50;100728.59;5064778;28;20029;-60
2023/02/22 11:28:55;;;;;;;0.50;0.50;;;;;;;2.97;65.34;100732.22;5063430;28;20021;-61
2023/02/22 11:31:27;;;;;;;0.50;0.50;;;;;;;3.25;63.49;100712.44;5065274;28;20032;-63
2023/02/22 11:33:56;;;;;;;0.60;0.60;;;;;;;3.09;64.26;100736.81;5065123;28;20032;-61
2023/02/22 11:36:29;;;;;;;0.50;0.50;;;;;;;2.95;64.94;100739.88;5064971;28;20025;-61